createdAt,value
2023-02-07T00:01:22.731Z,78.70
2023-02-07T00:03:49.617Z,69.18
2023-02-07T00:06:25.904Z,66.25
2023-02-07T00:08:52.877Z,71.13
2023-02-07T00:11:23.124Z,78.45
2023-02-07T00:13:53.070Z,67.20
2023-02-07T00:16:20.588Z,79.90
2023-02-07T00:18:47.649Z,91.72
2023-02-07T00:21:17.159Z,93.75
2023-02-07T00:23:44.944Z,86.47
2023-02-07T00:26:13.509Z,82.07
2023-02-07T00:28:40.165Z,75.20
2023-02-07T00:31:16.518Z,75.63
2023-02-07T00:33:45.007Z,76.60
2023-02-07T00:36:14.817Z,73.80
2023-02-07T00:38:41.720Z,81.65
2023-02-07T00:41:09.000Z,82.60
2023-02-07T00:43:35.781Z,83.50
2023-02-07T00:46:05.561Z,82.13
2023-02-07T00:48:33.012Z,86.30
2023-02-07T00:51:00.596Z,85.40
2023-02-07T00:53:28.468Z,98.43
2023-02-07T00:55:55.320Z,86.90
2023-02-07T00:58:22.089Z,94.35
2023-02-07T01:00:49.431Z,88.18
2023-02-07T01:03:16.388Z,93.72
2023-02-07T01:05:43.168Z,94.53
2023-02-07T01:08:09.829Z,87.10
2023-02-07T01:10:38.801Z,90.03
2023-02-07T01:13:05.335Z,86.45
2023-02-07T01:15:32.286Z,90.18
2023-02-07T01:17:58.866Z,88.40
2023-02-07T01:20:25.494Z,87.82
2023-02-07T01:22:52.694Z,91.35
2023-02-07T01:25:19.288Z,95.10
2023-02-07T01:27:45.917Z,89.40
2023-02-07T01:30:13.032Z,95.93
2023-02-07T01:32:39.584Z,98.13
2023-02-07T01:35:06.699Z,97.00
2023-02-07T01:37:33.550Z,90.03
2023-02-07T01:40:00.718Z,93.78
2023-02-07T01:42:28.805Z,92.78
2023-02-07T01:44:55.306Z,97.10
2023-02-07T01:47:23.456Z,97.43
2023-02-07T01:49:53.033Z,96.20
2023-02-07T01:52:29.517Z,102.82
2023-02-07T01:55:01.433Z,97.35
2023-02-07T01:57:28.610Z,99.97
2023-02-07T01:59:58.336Z,101.97
2023-02-07T02:02:30.919Z,92.10
2023-02-07T02:04:59.074Z,80.43
2023-02-07T02:07:28.687Z,82.63
2023-02-07T02:09:55.467Z,82.75
2023-02-07T02:12:43.530Z,82.82
2023-02-07T02:15:16.005Z,77.88
2023-02-07T02:17:57.914Z,86.70
2023-02-07T02:20:55.110Z,83.22
2023-02-07T02:23:48.989Z,73.53
2023-02-07T02:26:27.611Z,70.90
2023-02-07T02:29:07.392Z,67.53
2023-02-07T02:32:09.455Z,73.07
2023-02-07T02:34:47.876Z,58.88
2023-02-07T02:37:54.189Z,63.75
2023-02-07T02:40:34.208Z,59.60
2023-02-07T02:43:46.627Z,51.78
2023-02-07T02:46:25.393Z,48.83
2023-02-07T02:48:53.557Z,55.03
2023-02-07T02:51:20.168Z,73.65
2023-02-07T02:53:57.844Z,91.13
2023-02-07T02:56:27.140Z,91.20
2023-02-07T02:59:05.879Z,109.13
2023-02-07T03:01:38.521Z,97.95
2023-02-07T03:04:34.277Z,94.20
2023-02-07T03:07:19.141Z,97.70
2023-02-07T03:10:00.195Z,94.95
2023-02-07T03:12:48.080Z,98.07
2023-02-07T03:15:35.729Z,100.65
2023-02-07T03:18:11.814Z,106.75
2023-02-07T03:20:52.839Z,110.18
2023-02-07T03:23:21.367Z,107.28
2023-02-07T03:25:51.690Z,112.53
2023-02-07T03:28:20.701Z,136.40
2023-02-07T03:30:51.285Z,122.75
2023-02-07T03:33:19.338Z,125.45
2023-02-07T03:35:56.793Z,119.80
2023-02-07T03:38:24.453Z,118.18
2023-02-07T03:41:03.245Z,119.72
2023-02-07T03:43:32.404Z,112.25
2023-02-07T03:45:59.541Z,126.55
2023-02-07T03:48:26.191Z,128.38
2023-02-07T03:50:52.999Z,117.78
2023-02-07T03:53:21.020Z,116.55
2023-02-07T03:55:47.817Z,106.82
2023-02-07T03:58:14.574Z,83.10
2023-02-07T04:00:41.213Z,81.50
2023-02-07T04:03:07.801Z,71.50
2023-02-07T04:05:34.727Z,112.43
2023-02-07T04:08:01.421Z,123.22
2023-02-07T04:10:28.155Z,131.32
2023-02-07T04:12:54.740Z,122.95
2023-02-07T04:15:21.490Z,125.03
2023-02-07T04:17:48.051Z,133.07
2023-02-07T04:20:14.768Z,147.10
2023-02-07T04:22:41.361Z,147.38
2023-02-07T04:25:08.386Z,136.50
2023-02-07T04:27:34.996Z,140.05
2023-02-07T04:30:01.596Z,147.85
2023-02-07T04:32:28.215Z,160.15
2023-02-07T04:34:54.854Z,204.90
2023-02-07T04:37:21.412Z,155.93
2023-02-07T04:39:48.056Z,174.93
2023-02-07T04:42:14.625Z,143.55
2023-02-07T04:44:41.191Z,92.70
2023-02-07T04:47:07.773Z,137.82
2023-02-07T04:49:34.860Z,96.07
2023-02-07T04:52:01.653Z,86.65
2023-02-07T04:54:28.287Z,117.10
2023-02-07T04:56:54.904Z,161.98
2023-02-07T04:59:21.477Z,172.23
2023-02-07T05:01:48.032Z,176.00
2023-02-07T05:04:15.951Z,173.75
2023-02-07T05:06:43.037Z,171.13
2023-02-07T05:09:09.606Z,155.20
2023-02-07T05:11:36.233Z,167.18
2023-02-07T05:14:02.808Z,107.13
2023-02-07T05:16:29.453Z,138.32
2023-02-07T05:18:56.033Z,144.32
2023-02-07T05:21:22.701Z,127.15
2023-02-07T05:23:49.330Z,138.68
2023-02-07T05:26:17.177Z,84.43
2023-02-07T05:28:44.147Z,97.15
2023-02-07T05:31:10.857Z,88.90
2023-02-07T05:33:37.472Z,71.15
2023-02-07T05:36:05.102Z,73.43
2023-02-07T05:38:32.727Z,81.03
2023-02-07T05:40:59.850Z,109.68
2023-02-07T05:43:26.515Z,95.20
2023-02-07T05:45:53.092Z,104.68
2023-02-07T05:48:19.694Z,96.35
2023-02-07T05:50:46.285Z,84.55
2023-02-07T05:53:13.069Z,98.38
2023-02-07T05:55:40.045Z,87.40
2023-02-07T05:58:06.814Z,93.78
2023-02-07T06:00:33.753Z,93.50
2023-02-07T06:03:00.319Z,107.38
2023-02-07T06:05:31.630Z,87.03
2023-02-07T06:07:58.517Z,88.25
2023-02-07T06:10:25.246Z,80.00
2023-02-07T06:12:51.825Z,83.90
2023-02-07T06:15:18.619Z,115.68
2023-02-07T06:17:45.223Z,94.60
2023-02-07T06:20:12.199Z,96.03
2023-02-07T06:22:39.002Z,100.80
2023-02-07T06:25:05.969Z,99.47
2023-02-07T06:27:32.547Z,101.47
2023-02-07T06:29:59.094Z,129.30
2023-02-07T06:32:25.784Z,135.45
2023-02-07T06:34:52.456Z,137.00
2023-02-07T06:37:19.020Z,143.93
2023-02-07T06:39:45.595Z,137.65
2023-02-07T06:42:12.304Z,140.85
2023-02-07T06:44:38.829Z,130.80
2023-02-07T06:47:05.548Z,155.63
2023-02-07T06:49:32.255Z,167.00
2023-02-07T06:51:58.937Z,208.45
2023-02-07T06:54:25.502Z,206.70
2023-02-07T06:56:52.073Z,185.30
2023-02-07T06:59:18.682Z,238.73
2023-02-07T07:01:46.774Z,239.23
2023-02-07T07:04:14.522Z,213.82
2023-02-07T07:06:41.439Z,210.25
2023-02-07T07:09:08.029Z,215.45
2023-02-07T07:11:35.507Z,158.25
2023-02-07T07:14:02.704Z,193.95
2023-02-07T07:16:29.387Z,205.75
2023-02-07T07:18:55.954Z,211.60
2023-02-07T07:21:22.550Z,242.27
2023-02-07T07:23:49.131Z,193.27
2023-02-07T07:26:15.799Z,188.25
2023-02-07T07:28:42.372Z,189.50
2023-02-07T07:31:09.387Z,190.65
2023-02-07T07:33:36.879Z,180.40
2023-02-07T07:36:04.156Z,189.68
2023-02-07T07:38:31.553Z,200.07
2023-02-07T07:40:58.815Z,211.27
2023-02-07T07:43:25.873Z,162.65
2023-02-07T07:45:57.432Z,103.25
2023-02-07T07:48:24.684Z,85.65
2023-02-07T07:50:52.186Z,71.55
2023-02-07T07:53:19.765Z,68.28
2023-02-07T07:55:55.208Z,69.70
2023-02-07T07:58:23.348Z,62.83
2023-02-07T08:00:50.447Z,86.28
2023-02-07T08:03:19.226Z,93.47
2023-02-07T08:05:46.962Z,68.72
2023-02-07T08:08:14.222Z,58.40
2023-02-07T08:10:41.337Z,58.47
2023-02-07T08:13:08.545Z,59.85
2023-02-07T08:15:35.142Z,57.92
2023-02-07T08:18:01.771Z,57.47
2023-02-07T08:20:28.497Z,56.78
2023-02-07T08:22:55.040Z,53.90
2023-02-07T08:25:21.572Z,56.88
2023-02-07T08:27:48.190Z,56.67
2023-02-07T08:30:15.770Z,56.88
2023-02-07T08:32:42.745Z,66.35
2023-02-07T08:35:09.723Z,69.75
2023-02-07T08:37:36.653Z,66.20
2023-02-07T08:40:05.270Z,69.00
2023-02-07T08:42:31.943Z,81.90
2023-02-07T08:44:58.538Z,90.82
2023-02-07T08:47:25.349Z,97.10
2023-02-07T08:49:51.982Z,104.32
2023-02-07T08:52:18.624Z,107.32
2023-02-07T08:54:45.237Z,110.07
2023-02-07T08:57:11.888Z,109.75
2023-02-07T08:59:38.463Z,110.28
2023-02-07T09:02:05.113Z,108.35
2023-02-07T09:04:31.676Z,108.80
2023-02-07T09:06:58.357Z,112.32
2023-02-07T09:09:25.212Z,115.68
2023-02-07T09:11:51.922Z,116.07
2023-02-07T09:14:18.758Z,114.63
2023-02-07T09:16:45.455Z,119.38
2023-02-07T09:19:12.082Z,118.95
2023-02-07T09:21:38.771Z,82.70
2023-02-07T09:24:05.548Z,58.45
2023-02-07T09:26:34.360Z,58.83
2023-02-07T09:29:01.081Z,50.75
2023-02-07T09:31:28.199Z,47.47
2023-02-07T09:33:54.850Z,38.05
2023-02-07T09:36:24.814Z,36.58
2023-02-07T09:38:51.789Z,32.33
2023-02-07T09:41:47.366Z,29.25
2023-02-07T09:44:17.178Z,27.58
2023-02-07T09:46:52.191Z,28.45
2023-02-07T09:49:35.686Z,28.85
2023-02-07T09:52:05.693Z,29.13
2023-02-07T09:54:42.190Z,28.35
2023-02-07T09:57:16.517Z,29.13
2023-02-07T09:59:49.640Z,30.70
2023-02-07T10:02:25.103Z,29.15
2023-02-07T10:04:56.673Z,27.83
2023-02-07T10:07:23.648Z,29.83
2023-02-07T10:09:50.233Z,31.60
2023-02-07T10:12:42.751Z,28.40
2023-02-07T10:15:20.259Z,30.13
2023-02-07T10:18:17.361Z,29.27
2023-02-07T10:20:55.377Z,27.90
2023-02-07T10:23:39.625Z,27.98
2023-02-07T10:26:36.864Z,29.63
2023-02-07T10:29:18.098Z,30.30
2023-02-07T10:31:49.113Z,29.17
2023-02-07T10:34:21.871Z,30.55
2023-02-07T10:36:51.011Z,30.42
2023-02-07T10:39:39.332Z,30.08
2023-02-07T10:42:05.953Z,30.38
2023-02-07T10:44:32.946Z,30.55
2023-02-07T10:47:02.163Z,30.55
2023-02-07T10:49:32.009Z,31.85
2023-02-07T10:52:10.689Z,30.17
2023-02-07T10:54:54.242Z,29.05
2023-02-07T10:57:22.028Z,26.38
2023-02-07T10:59:50.634Z,27.80
2023-02-07T11:02:29.346Z,26.90
2023-02-07T11:04:57.200Z,28.50
2023-02-07T11:07:25.070Z,27.83
2023-02-07T11:09:51.682Z,28.38
2023-02-07T11:12:22.698Z,27.38
2023-02-07T11:15:02.693Z,28.38
2023-02-07T11:17:29.838Z,27.33
2023-02-07T11:19:57.074Z,29.38
2023-02-07T11:22:24.879Z,29.95
2023-02-07T11:25:00.261Z,28.80
2023-02-07T11:27:27.449Z,29.50
2023-02-07T11:30:00.194Z,30.77
2023-02-07T11:32:28.503Z,29.15
2023-02-07T11:35:06.460Z,28.90
2023-02-07T11:37:38.938Z,29.33
2023-02-07T11:40:31.310Z,29.95
2023-02-07T11:43:12.940Z,28.33
2023-02-07T11:45:46.425Z,29.98
2023-02-07T11:48:24.301Z,30.35
2023-02-07T11:50:56.080Z,30.80
2023-02-07T11:53:27.102Z,30.02
2023-02-07T11:55:55.525Z,30.75
2023-02-07T11:58:41.205Z,29.55
2023-02-07T12:01:08.703Z,29.58
2023-02-07T12:03:45.083Z,28.77
2023-02-07T12:06:18.187Z,29.95
2023-02-07T12:08:45.829Z,29.75
2023-02-07T12:11:38.223Z,30.63
2023-02-07T12:14:21.053Z,30.08
2023-02-07T12:16:55.051Z,30.98
2023-02-07T12:19:28.257Z,30.13
2023-02-07T12:22:18.077Z,28.45
2023-02-07T12:25:14.097Z,29.48
2023-02-07T12:27:44.917Z,29.58
2023-02-07T12:30:26.153Z,30.10
2023-02-07T12:32:55.424Z,30.15
2023-02-07T12:35:51.946Z,29.33
2023-02-07T12:38:26.542Z,28.73
2023-02-07T12:41:12.684Z,29.98
2023-02-07T12:43:46.051Z,29.88
2023-02-07T12:46:29.246Z,28.55
2023-02-07T12:49:04.446Z,29.15
2023-02-07T12:52:03.918Z,29.08
2023-02-07T12:55:09.214Z,29.23
2023-02-07T12:57:45.478Z,26.58
2023-02-07T13:00:27.076Z,28.75
2023-02-07T13:03:33.228Z,28.35
2023-02-07T13:06:30.716Z,28.60
2023-02-07T13:09:10.007Z,27.65
2023-02-07T13:12:09.005Z,26.33
2023-02-07T13:15:21.721Z,27.65
2023-02-07T13:18:02.105Z,26.25
2023-02-07T13:20:40.591Z,26.42
2023-02-07T13:23:21.348Z,26.13
2023-02-07T13:25:53.288Z,26.25
2023-02-07T13:28:26.590Z,25.80
2023-02-07T13:30:54.401Z,26.80
2023-02-07T13:33:34.924Z,27.10
2023-02-07T13:36:28.178Z,27.92
2023-02-07T13:38:59.255Z,26.88
2023-02-07T13:41:36.858Z,28.17
2023-02-07T13:44:11.080Z,25.70
2023-02-07T13:47:15.864Z,28.88
2023-02-07T13:49:58.790Z,26.67
2023-02-07T13:52:34.799Z,25.95
2023-02-07T13:55:38.614Z,27.83
2023-02-07T13:58:53.154Z,27.38
2023-02-07T14:01:32.397Z,28.70
2023-02-07T14:04:06.798Z,28.27
2023-02-07T14:09:17.464Z,26.80
2023-02-07T14:11:55.981Z,27.38
2023-02-07T14:14:25.220Z,29.17
2023-02-07T14:16:57.974Z,28.75
2023-02-07T14:19:54.737Z,28.08
2023-02-07T14:22:48.775Z,30.13
2023-02-07T14:25:39.512Z,28.25
2023-02-07T14:28:09.473Z,29.17
2023-02-07T14:30:49.656Z,29.05
2023-02-07T14:33:36.498Z,28.88
2023-02-07T14:36:17.271Z,28.00
2023-02-07T14:39:18.800Z,30.67
2023-02-07T14:41:48.078Z,30.75
2023-02-07T14:44:23.532Z,31.35
2023-02-07T14:46:56.033Z,30.42
2023-02-07T14:49:29.259Z,30.90
2023-02-07T14:52:11.254Z,32.05
2023-02-07T14:54:53.002Z,33.00
2023-02-07T14:57:56.529Z,33.40
2023-02-07T15:00:49.287Z,32.15
2023-02-07T15:03:21.371Z,31.02
2023-02-07T15:06:01.817Z,30.85
2023-02-07T15:08:32.511Z,31.60
2023-02-07T15:11:05.364Z,31.65
2023-02-07T15:13:39.190Z,31.27
2023-02-07T15:16:06.850Z,31.10
2023-02-07T15:18:42.564Z,30.45
2023-02-07T15:21:34.752Z,30.35
2023-02-07T15:24:27.284Z,30.83
2023-02-07T15:26:58.350Z,31.17
2023-02-07T15:29:28.872Z,34.50
2023-02-07T15:31:55.802Z,33.22
2023-02-07T15:34:31.695Z,32.90
2023-02-07T15:37:05.336Z,32.67
2023-02-07T15:39:32.052Z,34.70
2023-02-07T15:41:58.878Z,33.30
2023-02-07T15:44:30.496Z,32.58
2023-02-07T15:47:02.375Z,30.92
2023-02-07T15:49:34.736Z,30.35
2023-02-07T15:52:25.105Z,30.98
2023-02-07T15:54:54.459Z,31.75
2023-02-07T15:57:29.482Z,30.88
2023-02-07T16:00:02.150Z,29.60
2023-02-07T16:02:31.735Z,29.67
2023-02-07T16:05:16.512Z,29.42
2023-02-07T16:07:47.792Z,29.77
2023-02-07T16:10:20.404Z,31.48
2023-02-07T16:12:53.031Z,31.60
2023-02-07T16:15:30.418Z,29.50
2023-02-07T16:17:57.046Z,27.58
2023-02-07T16:20:24.891Z,28.33
2023-02-07T16:22:52.190Z,32.05
2023-02-07T16:25:26.379Z,29.95
2023-02-07T16:27:53.354Z,30.50
2023-02-07T16:30:24.903Z,33.25
2023-02-07T16:32:51.506Z,29.98
2023-02-07T16:35:21.127Z,32.28
2023-02-07T16:37:48.232Z,29.92
2023-02-07T16:40:15.263Z,29.83
2023-02-07T16:42:42.456Z,27.33
2023-02-07T16:45:21.875Z,32.08
2023-02-07T16:47:48.636Z,29.00
2023-02-07T16:50:20.909Z,30.88
2023-02-07T16:52:52.078Z,32.20
2023-02-07T16:55:20.699Z,29.73
2023-02-07T16:57:49.191Z,28.70
2023-02-07T17:00:26.567Z,31.63
2023-02-07T17:02:53.933Z,28.63
2023-02-07T17:05:24.079Z,27.52
2023-02-07T17:07:51.165Z,28.02
2023-02-07T17:10:31.412Z,30.33
2023-02-07T17:12:58.092Z,28.83
2023-02-07T17:15:24.665Z,31.02
2023-02-07T17:17:53.185Z,31.90
2023-02-07T17:20:26.880Z,32.22
2023-02-07T17:22:54.008Z,30.95
2023-02-07T17:25:22.299Z,28.30
2023-02-07T17:27:48.954Z,27.90
2023-02-07T17:30:33.373Z,34.35
2023-02-07T17:32:59.952Z,30.27
2023-02-07T17:35:26.517Z,33.35
2023-02-07T17:37:53.600Z,32.30
2023-02-07T17:40:20.078Z,30.95
2023-02-07T17:42:46.656Z,33.72
2023-02-07T17:45:13.210Z,33.42
2023-02-07T17:47:39.828Z,31.85
2023-02-07T17:50:08.119Z,37.38
2023-02-07T17:52:35.002Z,31.40
2023-02-07T17:55:01.538Z,35.92
2023-02-07T17:57:28.092Z,36.20
2023-02-07T17:59:54.669Z,40.90
2023-02-07T18:02:21.274Z,37.47
2023-02-07T18:04:47.836Z,36.53
2023-02-07T18:07:14.672Z,35.50
2023-02-07T18:09:41.299Z,42.88
2023-02-07T18:12:08.104Z,36.45
2023-02-07T18:14:34.683Z,39.22
2023-02-07T18:17:01.296Z,41.75
2023-02-07T18:19:28.177Z,40.20
2023-02-07T18:21:54.820Z,39.55
2023-02-07T18:24:22.164Z,36.95
2023-02-07T18:26:48.997Z,37.30
2023-02-07T18:29:16.613Z,38.53
2023-02-07T18:31:43.740Z,38.72
2023-02-07T18:34:10.485Z,37.42
2023-02-07T18:36:40.662Z,40.45
2023-02-07T18:39:09.306Z,38.55
2023-02-07T18:41:36.653Z,40.20
2023-02-07T18:44:03.941Z,41.40
2023-02-07T18:46:31.999Z,45.95
2023-02-07T18:48:59.220Z,40.67
2023-02-07T18:51:27.026Z,42.25
2023-02-07T18:53:56.768Z,44.15
2023-02-07T18:56:25.698Z,48.17
2023-02-07T18:58:53.216Z,50.42
2023-02-07T19:01:20.862Z,48.55
2023-02-07T19:03:54.441Z,52.58
2023-02-07T19:06:23.151Z,55.38
2023-02-07T19:08:50.215Z,59.15
2023-02-07T19:11:17.267Z,61.83
2023-02-07T19:13:43.973Z,62.88
2023-02-07T19:16:16.015Z,62.58
2023-02-07T19:18:42.571Z,64.40
2023-02-07T19:21:12.313Z,65.03
2023-02-07T19:23:39.989Z,67.65
2023-02-07T19:26:07.470Z,66.72
2023-02-07T19:28:35.592Z,70.05
2023-02-07T19:31:07.323Z,65.68
2023-02-07T19:33:35.620Z,68.25
2023-02-07T19:36:11.195Z,71.10
2023-02-07T19:38:38.588Z,70.45
2023-02-07T19:41:06.425Z,71.13
2023-02-07T19:43:33.660Z,69.97
2023-02-07T19:46:00.299Z,66.78
2023-02-07T19:48:27.342Z,69.93
2023-02-07T19:51:00.554Z,98.47
2023-02-07T19:53:28.655Z,88.45
2023-02-07T19:56:02.037Z,94.13
2023-02-07T19:58:30.305Z,100.15
2023-02-07T20:00:57.928Z,118.75
2023-02-07T20:03:25.653Z,144.57
2023-02-07T20:05:53.051Z,148.10
2023-02-07T20:08:20.767Z,152.70
2023-02-07T20:10:48.447Z,150.77
2023-02-07T20:13:15.980Z,144.57
2023-02-07T20:15:47.188Z,135.57
2023-02-07T20:18:14.210Z,145.98
2023-02-07T20:20:47.149Z,147.88
2023-02-07T20:23:14.729Z,145.93
2023-02-07T20:25:41.393Z,156.38
2023-02-07T20:28:08.738Z,155.55
2023-02-07T20:30:36.324Z,162.32
2023-02-07T20:33:03.002Z,155.73
2023-02-07T20:35:29.622Z,160.02
2023-02-07T20:37:56.764Z,159.05
2023-02-07T20:40:23.345Z,153.30
2023-02-07T20:42:49.909Z,153.18
2023-02-07T20:45:16.844Z,147.68
2023-02-07T20:47:43.464Z,151.57
2023-02-07T20:50:10.102Z,159.95
2023-02-07T20:52:39.766Z,160.30
2023-02-07T20:55:07.017Z,165.57
2023-02-07T20:57:33.532Z,149.07
2023-02-07T21:00:00.117Z,141.38
2023-02-07T21:02:26.758Z,143.02
2023-02-07T21:04:53.362Z,141.65
2023-02-07T21:07:19.932Z,137.18
2023-02-07T21:09:46.594Z,136.20
2023-02-07T21:12:13.296Z,141.68
2023-02-07T21:14:40.531Z,135.23
2023-02-07T21:17:07.490Z,130.95
2023-02-07T21:19:35.792Z,136.75
2023-02-07T21:22:02.505Z,129.52
2023-02-07T21:24:29.119Z,138.13
2023-02-07T21:26:56.196Z,133.40
2023-02-07T21:29:23.336Z,149.20
2023-02-07T21:31:50.813Z,130.95
2023-02-07T21:34:21.116Z,123.65
2023-02-07T21:36:49.148Z,126.57
2023-02-07T21:39:16.629Z,120.15
2023-02-07T21:41:44.987Z,112.82
2023-02-07T21:44:13.049Z,113.30
2023-02-07T21:46:41.801Z,109.68
2023-02-07T21:49:14.586Z,104.82
2023-02-07T21:51:45.660Z,111.82
2023-02-07T21:54:12.248Z,120.30
2023-02-07T21:56:40.966Z,103.57
2023-02-07T21:59:14.094Z,97.88
2023-02-07T22:01:41.282Z,93.85
2023-02-07T22:04:12.237Z,91.28
2023-02-07T22:06:43.296Z,85.03
2023-02-07T22:09:13.367Z,87.72
2023-02-07T22:11:40.566Z,84.93
2023-02-07T22:14:07.290Z,86.05
2023-02-07T22:16:34.934Z,96.22
2023-02-07T22:19:04.181Z,89.47
2023-02-07T22:21:33.661Z,89.78
2023-02-07T22:24:00.701Z,91.55
2023-02-07T22:26:28.524Z,107.90
2023-02-07T22:28:57.395Z,107.40
2023-02-07T22:31:26.982Z,109.50
2023-02-07T22:33:55.034Z,106.03
2023-02-07T22:36:24.953Z,115.93
2023-02-07T22:38:51.506Z,96.55
2023-02-07T22:41:18.329Z,94.03
2023-02-07T22:43:45.072Z,94.70
2023-02-07T22:46:15.339Z,83.13
2023-02-07T22:48:42.300Z,77.82
2023-02-07T22:51:14.696Z,75.25
2023-02-07T22:53:41.952Z,75.65
2023-02-07T22:56:09.403Z,84.38
2023-02-07T22:58:36.900Z,81.47
2023-02-07T23:01:05.111Z,80.32
2023-02-07T23:03:32.375Z,79.18
2023-02-07T23:06:03.989Z,77.50
2023-02-07T23:08:30.645Z,71.30
2023-02-07T23:10:57.223Z,69.20
2023-02-07T23:13:23.851Z,72.85
2023-02-07T23:15:50.388Z,71.90
2023-02-07T23:18:16.976Z,71.78
2023-02-07T23:20:44.888Z,74.70
2023-02-07T23:23:12.619Z,76.18
2023-02-07T23:25:43.872Z,80.07
2023-02-07T23:28:10.859Z,75.93
2023-02-07T23:30:37.974Z,78.10
2023-02-07T23:33:06.307Z,77.78
2023-02-07T23:35:33.440Z,73.55
2023-02-07T23:38:01.797Z,82.47
2023-02-07T23:40:29.542Z,78.88
2023-02-07T23:42:56.249Z,83.57
2023-02-07T23:45:22.950Z,87.05
2023-02-07T23:47:49.549Z,91.10
2023-02-07T23:50:16.239Z,87.72
2023-02-07T23:52:42.805Z,86.53
2023-02-07T23:55:09.362Z,92.45
2023-02-07T23:57:36.053Z,87.85
